Time;durP1;ratioP1;P1;durP2;ratioP2;P2;SDS_P1;SDS_P2;PMS_P1;PMS_P2;Temp;Humidity;BMP_temperature;BMP_pressure;BME280_temperature;BME280_humidity;BME280_pressure;Samples;Min_cycle;Max_cycle;Signal;HPM_P1;HPM_P2
2021/06/11 00:00:35;;;;;;;;;8.50;4.00;;;;;-147.17;100.00;59696.56;2;261107952;261107952;-49
2021/06/11 00:11:28;;;;;;;;;10.50;6.00;;;;;-147.17;100.00;59696.56;2;315122524;315122524;-52
2021/06/11 00:20:42;;;;;;;;;0.50;0.50;;;;;-147.17;100.00;59696.56;2;261093902;261093902;-48
2021/06/11 00:31:35;;;;;;;;;0.00;0.00;;;;;-147.17;100.00;59696.56;2;315121138;315121138;-49
2021/06/11 00:40:49;;;;;;;;;2.00;2.00;;;;;-147.17;100.00;59696.56;2;261078640;261078640;-52
2021/06/11 00:51:42;;;;;;;;;1.00;1.00;;;;;-147.17;100.00;59696.56;2;315122715;315122715;-48
2021/06/11 01:00:56;;;;;;;;;1.50;1.50;;;;;-147.17;100.00;59696.56;2;261104636;261104636;-48
2021/06/11 01:11:50;;;;;;;;;4.50;3.50;;;;;-147.17;100.00;59696.56;2;315096085;315096085;-47
2021/06/11 01:21:08;;;;;;;;;0.50;0.50;;;;;-147.17;100.00;59696.56;2;261081918;261081918;-52
2021/06/11 01:32:03;;;;;;;;;1.50;1.50;;;;;-147.17;100.00;59696.56;2;315097602;315097602;-51
2021/06/11 01:41:18;;;;;;;;;7.00;1.00;;;;;-147.17;100.00;59696.56;2;261075361;261075361;-53
2021/06/11 01:52:12;;;;;;;;;1.50;1.50;;;;;-147.17;100.00;59696.56;2;315093740;315093740;-54
2021/06/11 02:01:27;;;;;;;;;3.00;3.00;;;;;-147.17;100.00;59696.56;2;261075846;261075846;-54
2021/06/11 02:12:21;;;;;;;;;2.00;2.00;;;;;-147.17;100.00;59696.56;2;315097064;315097064;-49
2021/06/11 02:21:35;;;;;;;;;1.50;1.50;;;;;-147.17;100.00;59696.56;2;261080491;261080491;-52
2021/06/11 02:32:33;;;;;;;;;3.50;3.50;;;;;-147.17;100.00;59696.56;2;315096080;315096080;-49
2021/06/11 02:41:49;;;;;;;;;2.50;2.50;;;;;-147.17;100.00;59696.56;2;261078469;261078469;-53
2021/06/11 02:52:46;;;;;;;;;3.00;3.00;;;;;-147.17;100.00;59696.56;2;315092194;315092194;-50
2021/06/11 03:02:06;;;;;;;;;1.00;1.00;;;;;-147.17;100.00;59696.56;2;261080365;261080365;-52
2021/06/11 03:13:01;;;;;;;;;0.00;0.00;;;;;-147.17;100.00;59696.56;2;315093781;315093781;-49
2021/06/11 03:22:22;;;;;;;;;1.00;1.00;;;;;-147.17;100.00;59696.56;2;261077144;261077144;-51
2021/06/11 03:33:22;;;;;;;;;0.50;0.50;;;;;-147.17;100.00;59696.56;2;315095688;315095688;-53
2021/06/11 03:42:37;;;;;;;;;1.00;1.00;;;;;-147.17;100.00;59696.56;2;261077887;261077887;-52
2021/06/11 03:53:31;;;;;;;;;1.50;1.50;;;;;-147.17;100.00;59696.56;2;315091314;315091314;-50
2021/06/11 04:02:46;;;;;;;;;0.50;0.50;;;;;-147.17;100.00;59696.56;2;261080746;261080746;-53
2021/06/11 04:13:51;;;;;;;;;0.50;0.50;;;;;-147.17;100.00;59696.56;2;315094250;315094250;-53
2021/06/11 04:23:06;;;;;;;;;2.50;2.50;;;;;-147.17;100.00;59696.56;2;261080284;261080284;-53
2021/06/11 04:33:59;;;;;;;;;2.00;2.00;;;;;-147.17;100.00;59696.56;2;315096693;315096693;-52
2021/06/11 04:43:13;;;;;;;;;1.00;1.00;;;;;-147.17;100.00;59696.56;2;261077231;261077231;-52
2021/06/11 04:54:07;;;;;;;;;2.00;2.00;;;;;-147.17;100.00;59696.56;2;315091889;315091889;-51
2021/06/11 05:03:21;;;;;;;;;4.50;2.50;;;;;-147.17;100.00;59696.56;2;261080968;261080968;-52
2021/06/11 05:14:14;;;;;;;;;0.50;0.50;;;;;-147.17;100.00;59696.56;2;315094822;315094822;-53
2021/06/11 05:23:28;;;;;;;;;1.50;1.50;;;;;-147.17;100.00;59696.56;2;261076331;261076331;-51
2021/06/11 05:34:21;;;;;;;;;3.50;3.50;;;;;-147.17;100.00;59696.56;2;315092894;315092894;-49
2021/06/11 05:43:36;;;;;;;;;1.00;1.00;;;;;-147.17;100.00;59696.56;2;261083823;261083823;-51
2021/06/11 05:54:29;;;;;;;;;2.00;2.00;;;;;-147.17;100.00;59696.56;2;315092503;315092503;-52
2021/06/11 06:03:43;;;;;;;;;6.00;3.50;;;;;-147.17;100.00;59696.56;2;261078041;261078041;-50
2021/06/11 06:14:36;;;;;;;;;4.50;4.50;;;;;-147.17;100.00;59696.56;2;315092402;315092402;-52
2021/06/11 06:23:50;;;;;;;;;4.50;2.50;;;;;-147.17;100.00;59696.56;2;261077343;261077343;-52
2021/06/11 06:34:43;;;;;;;;;4.50;4.50;;;;;-147.17;100.00;59696.56;2;315095885;315095885;-47
2021/06/11 06:43:57;;;;;;;;;9.00;3.00;;;;;-147.17;100.00;59696.56;2;261080886;261080886;-48
2021/06/11 06:54:51;;;;;;;;;5.00;5.00;;;;;-147.17;100.00;59696.56;2;315097023;315097023;-47
2021/06/11 07:04:05;;;;;;;;;2.00;2.00;;;;;-147.17;100.00;59696.56;2;261078299;261078299;-50
2021/06/11 07:14:58;;;;;;;;;3.00;3.00;;;;;-147.17;100.00;59696.56;2;315092765;315092765;-49
2021/06/11 07:24:12;;;;;;;;;4.00;2.00;;;;;-147.17;100.00;59696.56;2;261077872;261077872;-48
2021/06/11 07:35:06;;;;;;;;;3.50;3.50;;;;;-147.17;100.00;59696.56;2;315093971;315093971;-43
2021/06/11 07:44:22;;;;;;;;;0.50;0.50;;;;;-147.17;100.00;59696.56;2;261080114;261080114;-46
2021/06/11 07:55:15;;;;;;;;;2.50;2.50;;;;;-147.17;100.00;59696.56;2;315091094;315091094;-45
2021/06/11 08:04:31;;;;;;;;;3.00;3.00;;;;;-147.17;100.00;59696.56;2;261077452;261077452;-46
2021/06/11 08:15:24;;;;;;;;;5.00;5.00;;;;;-147.17;100.00;59696.56;2;315092723;315092723;-48
2021/06/11 08:24:38;;;;;;;;;4.50;4.50;;;;;-147.17;100.00;59696.56;2;261081310;261081310;-45
2021/06/11 08:35:32;;;;;;;;;3.50;3.50;;;;;-147.17;100.00;59696.56;2;315097164;315097164;-44
2021/06/11 08:44:46;;;;;;;;;1.00;1.00;;;;;-147.17;100.00;59696.56;2;261078653;261078653;-46
